Allen, Nebraska
Current Conditions -  °F | °C
As of 8:15 AM on Sunday 23 Nov 2014 (Local Time) from KLCG Reporting Station
Overcast Overcast  
Wind Chill: 35°   Ceiling: 11000
Heat Index: 44°   Visibility: 10mi
Dew Point: 37°   Wind: 25mph
Humidity: 77%   Direction: 340°NNW
Pressure: 29.51"   Gusts: 33mph
Location:  42.42°N, 96.85°W
Report Text: KLCG 231415Z AUTO 34022G29KT 10SM OVC110 07/03 A2951 RMK AO2 T00660028
Loading
Personal Weather Stations






























Interactive Weather Map New forecast layout! Learn more

10-Day Weather Forecast

Advertisements
Track Severe Weather on mobile